Noura M — 5VCN2 — position and weather

sailwx.info

Track history (hours):
 
Tides and Currents Weather Stations Pressure Air Temp Water Temp Dewpoint Dewpoint Depression Visibility Wind Speed Wind Dir Waves Ship Positions

Noura M

Last reported at 2017-Nov-25 01:17 UTC. Time now 2017-Nov-25 01:44 UTC.
Position N 36°46' E 026°52'.

Length 103 m; draft 4 m.

Type: Ship. MMSI: 246500000.

Date/timePositionNaut miles runAvg speedWind from/ knotsBaromVisibWave heightAir tempDewpointWater temp
2017-Nov-25 01:17N 36°46' E 026°52'710.6
2017-Nov-25 00:38N 36°40' E 026°56'110.8
2017-Nov-25 00:30N 36°38' E 026°57'510.7
2017-Nov-25 00:00N 36°34' E 027°00'2410.7
2017-Nov-24 21:45N 36°15' E 027°19'1210.6
2017-Nov-24 20:35N 36°05' E 027°29'510.3
2017-Nov-24 20:08N 36°02' E 027°32'110.1
2017-Nov-24 20:00N 36°01' E 027°33'510.1
2017-Nov-24 19:30N 35°57' E 027°37'510.7
2017-Nov-24 19:00N 35°53' E 027°42'710.9
2017-Nov-24 18:21N 35°48' E 027°47'410.5
2017-Nov-24 18:00N 35°45' E 027°50'510.0
2017-Nov-24 17:30N 35°41' E 027°54'510.0
2017-Nov-24 17:00N 35°37' E 027°58'7910.1
2017-Nov-24 09:11N 34°37' E 029°00'310.2
2017-Nov-24 08:54N 34°35' E 029°03'610.2
2017-Nov-24 08:18N 34°30' E 029°08'  
Track history (hours):
 
Tides and Currents Weather Stations Pressure Air Temp Water Temp Dewpoint Dewpoint Depression Visibility Wind Speed Wind Dir Waves Ship Positions

Noura M

Last reported at 2017-Nov-25 01:17 UTC. Time now 2017-Nov-25 01:44 UTC.
Position N 36°46' E 026°52'.

Length 103 m; draft 4 m.

Type: Ship. MMSI: 246500000.

Date/timePositionNaut miles runAvg speedWind from/ knotsBaromVisibWave heightAir tempDewpointWater temp
2017-Nov-25 01:17N 36°46' E 026°52'710.6
2017-Nov-25 00:38N 36°40' E 026°56'110.8
2017-Nov-25 00:30N 36°38' E 026°57'510.7
2017-Nov-25 00:00N 36°34' E 027°00'2410.7
2017-Nov-24 21:45N 36°15' E 027°19'1210.6
2017-Nov-24 20:35N 36°05' E 027°29'510.3
2017-Nov-24 20:08N 36°02' E 027°32'110.1
2017-Nov-24 20:00N 36°01' E 027°33'510.1
2017-Nov-24 19:30N 35°57' E 027°37'510.7
2017-Nov-24 19:00N 35°53' E 027°42'710.9
2017-Nov-24 18:21N 35°48' E 027°47'410.5
2017-Nov-24 18:00N 35°45' E 027°50'510.0
2017-Nov-24 17:30N 35°41' E 027°54'510.0
2017-Nov-24 17:00N 35°37' E 027°58'7910.1
2017-Nov-24 09:11N 34°37' E 029°00'310.2
2017-Nov-24 08:54N 34°35' E 029°03'610.2
2017-Nov-24 08:18N 34°30' E 029°08'  

Dump ship's entire track history